createdAt,value
2023-05-21T00:03:19.702Z,0.50
2023-05-21T00:04:07.239Z,0.50
2023-05-21T00:05:07.152Z,0.50
2023-05-21T00:06:07.307Z,0.50
2023-05-21T00:07:07.385Z,0.50
2023-05-21T00:08:07.097Z,0.50
2023-05-21T00:09:07.096Z,0.47
2023-05-21T00:10:07.091Z,0.48
2023-05-21T00:11:07.025Z,0.52
2023-05-21T00:12:07.059Z,0.50
2023-05-21T00:13:07.102Z,0.52
2023-05-21T00:14:07.312Z,0.52
2023-05-21T00:15:07.034Z,0.50
2023-05-21T00:16:07.837Z,0.48
2023-05-21T00:17:07.041Z,0.49
2023-05-21T00:18:06.986Z,0.50
2023-05-21T00:19:07.093Z,0.53
2023-05-21T00:20:06.964Z,0.50
2023-05-21T00:21:06.960Z,0.55
2023-05-21T00:22:06.964Z,0.34
2023-05-21T00:23:07.105Z,0.34
2023-05-21T00:24:06.982Z,0.34
2023-05-21T00:25:06.967Z,0.40
2023-05-21T00:26:06.979Z,0.50
2023-05-21T00:27:06.934Z,0.60
2023-05-21T00:28:06.910Z,0.93
2023-05-21T00:29:06.983Z,0.98
2023-05-21T00:30:07.823Z,1.02
2023-05-21T00:31:06.890Z,1.04
2023-05-21T00:32:06.970Z,1.16
2023-05-21T00:33:06.931Z,1.33
2023-05-21T00:34:06.877Z,1.09
2023-05-21T00:35:06.937Z,2.41
2023-05-21T00:36:06.859Z,3.64
2023-05-21T00:37:06.846Z,3.18
2023-05-21T00:38:06.856Z,2.03
2023-05-21T00:39:06.870Z,1.85
2023-05-21T00:40:06.865Z,1.55
2023-05-21T00:41:07.286Z,1.33
2023-05-21T00:42:06.983Z,1.10
2023-05-21T00:43:06.996Z,1.37
2023-05-21T00:44:06.990Z,1.95
2023-05-21T00:45:07.005Z,2.11
2023-05-21T00:46:07.100Z,1.74
2023-05-21T00:47:07.750Z,1.35
2023-05-21T00:48:07.061Z,1.14
2023-05-21T00:49:07.072Z,1.46
2023-05-21T00:50:07.052Z,1.39
2023-05-21T00:51:07.204Z,1.35
2023-05-21T00:52:07.116Z,1.17
2023-05-21T00:53:07.753Z,0.89
2023-05-21T00:54:07.180Z,0.80
2023-05-21T00:55:07.219Z,0.59
2023-05-21T00:56:07.376Z,0.50
2023-05-21T00:57:07.278Z,0.46
2023-05-21T00:58:07.285Z,0.45
2023-05-21T00:59:07.319Z,0.50
2023-05-21T01:00:07.314Z,0.54
2023-05-21T01:01:07.477Z,0.70
2023-05-21T01:02:07.413Z,1.65
2023-05-21T01:05:00.017Z,0.50
2023-05-21T01:06:00.041Z,0.50
2023-05-21T01:08:19.470Z,0.50
2023-05-21T01:09:19.994Z,0.50
2023-05-21T01:17:28.661Z,0.50
2023-05-21T01:18:28.586Z,0.50
2023-05-21T01:22:18.862Z,0.50
2023-05-21T01:23:08.588Z,0.50
2023-05-21T01:24:08.633Z,0.50
2023-05-21T01:25:08.606Z,0.50
2023-05-21T01:26:08.635Z,0.50
2023-05-21T01:27:08.665Z,0.50
2023-05-21T01:28:09.075Z,0.47
2023-05-21T01:29:10.020Z,0.38
2023-05-21T01:30:09.871Z,0.44
2023-05-21T01:33:21.078Z,0.50
2023-05-21T01:36:07.568Z,0.50
2023-05-21T01:37:07.558Z,0.50
2023-05-21T01:38:07.778Z,0.50
2023-05-21T01:39:07.582Z,0.50
2023-05-21T01:40:07.486Z,0.50
2023-05-21T01:41:07.462Z,0.52
2023-05-21T01:42:07.574Z,0.54
2023-05-21T01:43:08.154Z,0.50
2023-05-21T01:44:07.513Z,0.50
2023-05-21T01:45:07.487Z,0.53
2023-05-21T01:46:07.561Z,0.54
2023-05-21T01:47:07.441Z,0.53
2023-05-21T01:48:07.468Z,0.50
2023-05-21T01:49:07.433Z,0.39
2023-05-21T01:50:07.490Z,0.49
2023-05-21T01:51:07.431Z,0.50
2023-05-21T01:52:07.422Z,0.50
2023-05-21T01:53:07.450Z,0.50
2023-05-21T01:54:07.378Z,0.47
2023-05-21T01:55:07.359Z,0.51
2023-05-21T01:56:07.406Z,0.50
2023-05-21T01:57:07.374Z,0.47
2023-05-21T01:58:07.430Z,0.42
2023-05-21T01:59:07.372Z,0.45
2023-05-21T02:00:07.334Z,0.39
2023-05-21T02:01:07.402Z,0.44
2023-05-21T02:02:07.386Z,0.52
2023-05-21T02:03:07.482Z,0.68
2023-05-21T02:04:08.542Z,0.97
2023-05-21T02:05:07.346Z,1.14
2023-05-21T02:06:07.360Z,1.07
2023-05-21T02:07:07.345Z,1.13
2023-05-21T02:08:07.289Z,1.37
2023-05-21T02:09:07.295Z,1.60
2023-05-21T02:10:07.260Z,1.66
2023-05-21T02:11:07.889Z,1.51
2023-05-21T02:12:07.284Z,1.69
2023-05-21T02:13:07.286Z,1.70
2023-05-21T02:14:07.284Z,1.67
2023-05-21T02:15:07.335Z,1.71
2023-05-21T02:16:07.258Z,1.70
2023-05-21T02:17:07.248Z,1.76
2023-05-21T02:18:07.285Z,1.97
2023-05-21T02:19:07.235Z,1.92
2023-05-21T02:20:07.219Z,2.15
2023-05-21T02:21:07.271Z,2.27
2023-05-21T02:22:07.243Z,2.19
2023-05-21T02:23:07.273Z,2.08
2023-05-21T02:27:31.098Z,0.50
2023-05-21T02:28:30.894Z,0.50
2023-05-21T02:29:30.902Z,0.50
2023-05-21T02:30:30.907Z,0.50
2023-05-21T02:31:30.890Z,0.50
2023-05-21T02:32:30.897Z,0.50
2023-05-21T02:34:51.050Z,0.50
2023-05-21T02:35:50.636Z,0.50
2023-05-21T02:36:50.784Z,0.50
2023-05-21T02:37:50.676Z,0.50
2023-05-21T02:38:50.643Z,0.50
2023-05-21T02:39:50.681Z,0.52
2023-05-21T02:40:50.678Z,0.54
2023-05-21T02:41:50.600Z,0.56
2023-05-21T02:42:50.717Z,0.51
2023-05-21T02:43:50.637Z,0.52
2023-05-21T02:44:50.591Z,0.51
2023-05-21T02:45:50.623Z,0.51
2023-05-21T02:46:50.610Z,0.52
2023-05-21T02:47:50.565Z,0.54
2023-05-21T02:48:50.554Z,0.58
2023-05-21T02:49:50.624Z,0.65
2023-05-21T02:50:50.968Z,0.84
2023-05-21T02:51:51.070Z,0.98
2023-05-21T02:55:01.315Z,0.50
2023-05-21T02:58:40.196Z,0.50
2023-05-21T02:59:40.088Z,0.50
2023-05-21T03:00:40.153Z,0.50
2023-05-21T03:03:31.576Z,0.50
2023-05-21T03:04:31.239Z,0.50
2023-05-21T03:07:27.455Z,0.50
2023-05-21T03:08:26.478Z,0.50
2023-05-21T03:09:26.506Z,0.50
2023-05-21T03:10:26.528Z,0.50
2023-05-21T03:11:26.507Z,0.50
2023-05-21T03:12:26.606Z,0.51
2023-05-21T03:13:26.499Z,0.50
2023-05-21T03:14:26.468Z,0.54
2023-05-21T03:15:26.458Z,0.50
2023-05-21T03:16:26.451Z,0.34
2023-05-21T03:17:26.446Z,0.34
2023-05-21T03:18:26.470Z,0.47
2023-05-21T03:19:26.647Z,0.92
2023-05-21T03:20:26.460Z,1.01
2023-05-21T03:21:26.827Z,0.94
2023-05-21T03:22:26.416Z,0.99
2023-05-21T03:23:26.394Z,0.94
2023-05-21T03:24:26.392Z,0.86
2023-05-21T03:25:26.408Z,0.87
2023-05-21T03:26:26.372Z,0.93
2023-05-21T03:27:26.361Z,0.75
2023-05-21T03:28:26.827Z,0.71
2023-05-21T03:29:26.368Z,0.68
2023-05-21T03:30:26.335Z,0.59
2023-05-21T03:31:26.408Z,0.61
2023-05-21T03:32:27.254Z,0.52
2023-05-21T03:33:26.365Z,0.54
2023-05-21T03:34:26.368Z,0.64
2023-05-21T03:35:26.364Z,0.68
2023-05-21T03:36:26.363Z,0.64
2023-05-21T03:37:26.403Z,0.65
2023-05-21T03:38:26.604Z,0.64
2023-05-21T03:39:26.294Z,0.68
2023-05-21T03:40:26.808Z,0.95
2023-05-21T03:41:26.318Z,1.00
2023-05-21T03:42:26.288Z,0.95
2023-05-21T03:43:26.269Z,0.86
2023-05-21T03:44:26.214Z,0.95
2023-05-21T03:45:26.437Z,0.93
2023-05-21T03:46:26.793Z,1.03
2023-05-21T03:47:26.240Z,1.17
2023-05-21T03:48:26.236Z,1.20
2023-05-21T03:49:26.244Z,1.19
2023-05-21T03:50:26.213Z,1.04
2023-05-21T03:51:26.494Z,1.07
2023-05-21T03:53:46.153Z,0.50
2023-05-21T03:54:46.029Z,0.50
2023-05-21T03:55:46.139Z,0.50
2023-05-21T03:58:05.638Z,0.50
2023-05-21T04:02:13.667Z,0.50
2023-05-21T04:13:11.026Z,0.50
2023-05-21T04:14:10.357Z,0.50
2023-05-21T04:15:10.346Z,0.50
2023-05-21T04:16:10.366Z,0.50
2023-05-21T04:17:10.970Z,0.50
2023-05-21T04:19:43.994Z,0.50
2023-05-21T04:20:30.454Z,0.50
2023-05-21T04:21:30.363Z,0.50
2023-05-21T04:22:33.614Z,0.50
2023-05-21T04:29:32.476Z,0.50
2023-05-21T04:33:11.899Z,0.50
2023-05-21T04:35:58.149Z,0.50
2023-05-21T04:36:58.015Z,0.50
2023-05-21T04:37:58.645Z,0.50
2023-05-21T04:40:17.796Z,0.50
2023-05-21T04:43:09.550Z,0.50
2023-05-21T04:44:09.511Z,0.50
2023-05-21T04:45:09.572Z,0.50
2023-05-21T04:46:10.186Z,0.50
2023-05-21T04:47:09.701Z,0.50
2023-05-21T04:48:09.676Z,0.50
2023-05-21T04:49:09.510Z,0.50
2023-05-21T04:50:09.466Z,0.50
2023-05-21T04:51:09.481Z,0.50
2023-05-21T04:52:09.483Z,0.51
2023-05-21T04:53:09.501Z,0.51
2023-05-21T04:54:09.489Z,0.54
2023-05-21T04:55:09.432Z,0.49
2023-05-21T04:56:09.417Z,0.50
2023-05-21T04:57:09.413Z,0.48
2023-05-21T04:58:09.928Z,0.50
2023-05-21T04:59:09.432Z,0.52
2023-05-21T05:00:09.419Z,0.53
2023-05-21T05:01:09.452Z,0.62
2023-05-21T05:02:09.469Z,0.67
2023-05-21T05:03:09.508Z,0.72
2023-05-21T05:04:09.465Z,0.78
2023-05-21T05:05:09.380Z,0.79
2023-05-21T05:06:09.470Z,0.73
2023-05-21T05:07:09.420Z,0.59
2023-05-21T05:08:09.576Z,0.54
2023-05-21T05:09:09.512Z,0.51
2023-05-21T05:10:09.516Z,0.51
2023-05-21T05:11:09.617Z,0.56
2023-05-21T05:15:15.394Z,0.50
2023-05-21T05:16:15.120Z,0.50
2023-05-21T05:17:15.354Z,0.50
2023-05-21T05:21:33.272Z,0.50
2023-05-21T05:22:33.271Z,0.50
2023-05-21T05:23:33.957Z,0.50
2023-05-21T05:24:33.181Z,0.50
2023-05-21T05:25:33.168Z,0.50
2023-05-21T05:26:33.914Z,0.51
2023-05-21T05:27:33.170Z,0.55
2023-05-21T05:28:33.162Z,0.65
2023-05-21T05:29:33.182Z,0.76
2023-05-21T05:30:33.142Z,0.49
2023-05-21T05:31:33.280Z,0.51
2023-05-21T05:32:33.156Z,0.50
2023-05-21T05:33:33.331Z,0.51
2023-05-21T05:34:33.096Z,0.52
2023-05-21T05:35:33.113Z,0.45
2023-05-21T05:36:33.109Z,0.45
2023-05-21T05:37:33.055Z,0.35
2023-05-21T05:38:33.195Z,0.46
2023-05-21T05:39:33.072Z,0.50
2023-05-21T05:40:33.184Z,0.55
2023-05-21T05:41:33.097Z,0.51
2023-05-21T05:42:33.298Z,0.52
2023-05-21T05:46:57.473Z,0.50
2023-05-21T05:50:51.148Z,0.50
2023-05-21T05:51:50.881Z,0.50
2023-05-21T05:52:51.039Z,0.50
2023-05-21T05:53:50.850Z,0.50
2023-05-21T05:54:50.832Z,0.50
2023-05-21T05:58:10.429Z,0.50
2023-05-21T05:58:56.715Z,0.50
2023-05-21T05:59:56.737Z,0.50
2023-05-21T06:00:56.778Z,0.50
2023-05-21T06:01:56.883Z,0.50
2023-05-21T06:05:09.659Z,0.50
2023-05-21T06:05:57.440Z,0.50
2023-05-21T06:06:56.673Z,0.50
2023-05-21T06:07:56.582Z,0.50
2023-05-21T06:08:56.605Z,0.50
2023-05-21T06:09:57.340Z,0.50
2023-05-21T06:10:56.629Z,0.45
2023-05-21T06:11:56.629Z,0.50
2023-05-21T06:12:56.760Z,0.63
2023-05-21T06:13:56.967Z,0.60
2023-05-21T06:14:56.556Z,0.49
2023-05-21T06:15:56.547Z,0.54
2023-05-21T06:16:56.546Z,0.66
2023-05-21T06:17:56.561Z,0.75
2023-05-21T06:18:56.488Z,0.72
2023-05-21T06:19:56.595Z,0.82
2023-05-21T06:20:56.512Z,0.94
2023-05-21T06:21:57.336Z,0.97
2023-05-21T06:22:56.506Z,1.17
2023-05-21T06:23:56.503Z,1.32
2023-05-21T06:24:56.497Z,1.38
2023-05-21T06:25:56.431Z,1.59
2023-05-21T06:26:56.535Z,1.74
2023-05-21T06:27:56.438Z,1.84
2023-05-21T06:28:56.424Z,2.23
2023-05-21T06:29:57.373Z,2.42
2023-05-21T06:30:56.441Z,2.26
2023-05-21T06:31:57.247Z,2.09
2023-05-21T06:32:56.553Z,2.21
2023-05-21T06:33:56.581Z,2.38
2023-05-21T06:34:56.436Z,2.08
2023-05-21T06:35:56.434Z,2.41
2023-05-21T06:36:56.406Z,2.52
2023-05-21T06:37:56.400Z,2.25
2023-05-21T06:38:56.392Z,2.12
2023-05-21T06:39:56.381Z,1.91
2023-05-21T06:40:56.397Z,1.73
2023-05-21T06:41:56.527Z,1.19
2023-05-21T06:42:56.505Z,1.31
2023-05-21T06:43:56.531Z,1.37
2023-05-21T06:44:56.572Z,1.32
2023-05-21T06:45:56.657Z,1.20
2023-05-21T06:46:56.622Z,1.12
2023-05-21T06:47:56.688Z,0.92
2023-05-21T06:48:56.663Z,0.90
2023-05-21T06:49:56.674Z,0.84
2023-05-21T06:50:56.698Z,0.81
2023-05-21T06:51:56.700Z,0.89
2023-05-21T06:52:56.800Z,1.11
2023-05-21T06:53:56.802Z,1.25
2023-05-21T06:54:56.797Z,0.93
2023-05-21T06:55:56.799Z,0.87
2023-05-21T06:56:56.826Z,0.99
2023-05-21T06:57:57.034Z,1.03
2023-05-21T06:58:56.924Z,0.86
2023-05-21T06:59:56.979Z,0.87
2023-05-21T07:00:57.012Z,1.18
2023-05-21T07:01:57.069Z,1.04
2023-05-21T07:02:57.187Z,0.92
2023-05-21T07:03:57.161Z,0.84
2023-05-21T07:04:57.237Z,0.87
2023-05-21T07:05:57.823Z,0.73
2023-05-21T07:06:57.309Z,0.68
2023-05-21T07:07:57.297Z,0.76
2023-05-21T07:08:57.328Z,0.54
2023-05-21T07:09:57.341Z,0.50
2023-05-21T07:10:57.359Z,0.51
2023-05-21T07:11:57.426Z,0.58
2023-05-21T07:12:57.403Z,0.54
2023-05-21T07:13:57.438Z,0.71
2023-05-21T07:14:59.276Z,0.73
2023-05-21T07:15:57.557Z,0.77
2023-05-21T07:16:57.473Z,0.87
2023-05-21T07:17:57.543Z,0.91
2023-05-21T07:18:57.629Z,0.93
2023-05-21T07:19:57.578Z,0.97
2023-05-21T07:20:57.640Z,1.17
2023-05-21T07:21:57.673Z,1.27
2023-05-21T07:22:57.721Z,1.07
2023-05-21T07:23:57.787Z,1.22
2023-05-21T07:24:57.846Z,1.10
2023-05-21T07:25:57.861Z,1.06
2023-05-21T07:26:57.942Z,1.02
2023-05-21T07:27:57.920Z,0.80
2023-05-21T07:28:57.941Z,0.85
2023-05-21T07:29:57.987Z,0.79
2023-05-21T07:30:58.019Z,0.78
2023-05-21T07:31:58.064Z,0.74
2023-05-21T07:32:58.097Z,0.62
2023-05-21T07:33:58.067Z,0.67
2023-05-21T07:34:59.862Z,0.74
2023-05-21T07:35:58.206Z,0.86
2023-05-21T07:36:58.214Z,0.80
2023-05-21T07:37:58.254Z,1.09
2023-05-21T07:38:58.323Z,0.62
2023-05-21T07:39:58.329Z,0.46
2023-05-21T07:40:58.350Z,0.57
2023-05-21T07:41:58.378Z,0.50
2023-05-21T07:42:58.473Z,0.52
2023-05-21T07:43:58.459Z,0.63
2023-05-21T07:47:45.464Z,0.50
2023-05-21T07:48:45.253Z,0.50
2023-05-21T07:49:45.196Z,0.50
2023-05-21T07:53:23.527Z,0.50
2023-05-21T07:54:23.489Z,0.50
2023-05-21T08:00:08.220Z,0.50
2023-05-21T08:01:07.907Z,0.50
2023-05-21T08:02:07.934Z,0.50
2023-05-21T08:03:08.555Z,0.50
2023-05-21T08:05:27.410Z,0.50
2023-05-21T08:06:27.401Z,0.50
2023-05-21T08:07:27.406Z,0.50
2023-05-21T08:08:27.505Z,0.50
2023-05-21T08:09:27.528Z,0.50
2023-05-21T08:10:27.834Z,0.48
2023-05-21T08:11:27.346Z,0.51
2023-05-21T08:12:27.456Z,0.50
2023-05-21T08:13:27.378Z,0.60
2023-05-21T08:14:27.365Z,0.52
2023-05-21T08:15:27.368Z,0.53
2023-05-21T08:16:27.373Z,0.49
2023-05-21T08:17:27.611Z,0.49
2023-05-21T08:18:29.010Z,0.52
2023-05-21T08:19:27.416Z,0.50
2023-05-21T08:20:27.286Z,0.79
2023-05-21T08:21:27.288Z,0.97
2023-05-21T08:22:28.018Z,1.42
2023-05-21T08:23:27.297Z,1.98
2023-05-21T08:24:27.232Z,2.17
2023-05-21T08:25:27.234Z,2.51
2023-05-21T08:26:27.246Z,4.15
2023-05-21T08:27:27.238Z,4.61
2023-05-21T08:28:27.258Z,6.18
2023-05-21T08:29:27.247Z,4.93
2023-05-21T08:30:27.196Z,4.98
2023-05-21T08:31:27.230Z,7.03
2023-05-21T08:32:27.207Z,9.00
2023-05-21T08:33:27.179Z,10.28
2023-05-21T08:34:27.216Z,9.89
2023-05-21T08:35:27.249Z,18.14
2023-05-21T08:36:27.158Z,17.03
2023-05-21T08:37:27.184Z,15.06
2023-05-21T08:38:29.485Z,14.68
2023-05-21T08:39:27.178Z,13.28
2023-05-21T08:40:27.209Z,16.01
2023-05-21T08:41:27.217Z,25.51
2023-05-21T08:42:36.498Z,25.69
2023-05-21T08:43:28.187Z,25.75
2023-05-21T08:44:27.154Z,26.37
2023-05-21T08:45:27.212Z,28.64
2023-05-21T08:46:27.247Z,32.70
2023-05-21T08:47:27.197Z,42.58
2023-05-21T08:48:27.158Z,40.83
2023-05-21T08:49:27.516Z,48.79
2023-05-21T08:50:27.596Z,56.18
2023-05-21T08:51:27.129Z,66.39
2023-05-21T08:52:27.133Z,47.11
2023-05-21T08:53:28.986Z,38.26
2023-05-21T08:54:27.091Z,34.19
2023-05-21T08:55:27.114Z,26.44
2023-05-21T08:56:27.240Z,43.73
2023-05-21T08:57:27.225Z,54.50
2023-05-21T08:58:27.235Z,65.29
2023-05-21T08:59:27.437Z,84.09
2023-05-21T09:00:27.332Z,71.10
2023-05-21T09:01:27.434Z,41.24
2023-05-21T09:02:27.543Z,34.24
2023-05-21T09:03:28.858Z,44.75
2023-05-21T09:06:10.827Z,0.50
2023-05-21T09:07:10.343Z,0.50
2023-05-21T09:18:37.410Z,0.50
2023-05-21T09:19:37.547Z,0.50
2023-05-21T09:20:37.366Z,0.50
2023-05-21T09:21:37.372Z,0.50
2023-05-21T09:22:37.409Z,0.50
2023-05-21T09:23:37.557Z,0.50
2023-05-21T09:24:37.358Z,0.34
2023-05-21T09:25:37.551Z,0.34
2023-05-21T09:26:37.364Z,0.34
2023-05-21T09:27:37.299Z,0.34
2023-05-21T09:28:37.287Z,0.34
2023-05-21T09:29:37.523Z,0.34
2023-05-21T09:30:37.558Z,0.34
2023-05-21T09:31:37.303Z,0.34
2023-05-21T09:32:37.300Z,0.34
2023-05-21T09:33:37.380Z,0.34
2023-05-21T09:34:37.308Z,0.34
2023-05-21T09:35:38.179Z,0.34
2023-05-21T09:36:37.264Z,0.34
2023-05-21T09:37:37.428Z,0.34
2023-05-21T09:38:37.290Z,0.34
2023-05-21T09:39:37.309Z,0.34
2023-05-21T09:40:37.500Z,0.34
2023-05-21T09:41:37.389Z,0.34
2023-05-21T09:42:37.575Z,0.34
2023-05-21T09:43:37.452Z,0.34
2023-05-21T09:44:37.468Z,0.35
2023-05-21T09:45:37.821Z,0.34
2023-05-21T09:46:37.559Z,0.56
2023-05-21T09:47:38.501Z,0.53
2023-05-21T09:48:37.606Z,0.69
2023-05-21T09:49:37.692Z,0.50
2023-05-21T09:50:38.023Z,0.81
2023-05-21T09:51:37.736Z,0.59
2023-05-21T09:52:39.144Z,0.47
2023-05-21T09:53:37.725Z,0.46
2023-05-21T09:54:37.709Z,0.54
2023-05-21T09:55:37.750Z,1.00
2023-05-21T09:56:37.761Z,1.01
2023-05-21T10:02:21.461Z,0.50
2023-05-21T10:03:21.290Z,0.50
2023-05-21T10:04:21.233Z,0.50
2023-05-21T10:05:21.226Z,0.50
2023-05-21T10:06:21.269Z,0.50
2023-05-21T10:07:21.199Z,0.50
2023-05-21T10:08:21.174Z,0.34
2023-05-21T10:09:21.202Z,0.34
2023-05-21T10:13:05.465Z,0.50
2023-05-21T10:14:05.292Z,0.50
2023-05-21T10:23:43.318Z,0.50
2023-05-21T10:24:42.701Z,0.50
2023-05-21T10:25:42.670Z,0.50
2023-05-21T10:33:23.767Z,0.50
2023-05-21T10:34:23.539Z,0.50
2023-05-21T10:48:54.375Z,0.50
2023-05-21T10:49:54.075Z,0.50
2023-05-21T10:50:54.457Z,0.50
2023-05-21T10:51:54.142Z,0.50
2023-05-21T10:54:13.641Z,0.50
2023-05-21T10:55:13.479Z,0.50
2023-05-21T11:04:14.841Z,0.50
2023-05-21T11:05:14.661Z,0.50
2023-05-21T11:06:14.668Z,0.50
2023-05-21T11:09:20.786Z,0.50
2023-05-21T11:10:20.116Z,0.50
2023-05-21T11:11:20.104Z,0.50
2023-05-21T11:12:20.240Z,0.50
2023-05-21T11:19:21.105Z,0.50
2023-05-21T11:20:20.693Z,0.50
2023-05-21T11:21:20.761Z,0.50
2023-05-21T11:22:20.779Z,0.50
2023-05-21T11:25:13.802Z,0.50
2023-05-21T11:26:13.461Z,0.50
2023-05-21T11:27:13.540Z,0.50
2023-05-21T11:28:13.483Z,0.50
2023-05-21T11:29:13.691Z,0.50
2023-05-21T11:31:59.157Z,0.50
2023-05-21T11:32:58.962Z,0.50
2023-05-21T11:33:58.773Z,0.50
2023-05-21T11:34:59.198Z,0.50
2023-05-21T11:35:58.899Z,0.50
2023-05-21T11:36:58.796Z,0.50
2023-05-21T11:53:23.192Z,0.50
2023-05-21T11:54:23.060Z,0.50
2023-05-21T11:55:23.017Z,0.50
2023-05-21T11:56:23.025Z,0.50
2023-05-21T11:57:23.090Z,0.50
2023-05-21T11:58:22.969Z,0.50
2023-05-21T11:59:22.935Z,0.34
2023-05-21T12:00:22.904Z,0.34
2023-05-21T12:01:22.929Z,0.34
2023-05-21T12:02:23.025Z,0.34
2023-05-21T12:07:27.267Z,0.50
2023-05-21T12:08:26.393Z,0.50
2023-05-21T12:09:26.422Z,0.50
2023-05-21T12:10:26.467Z,0.50
2023-05-21T12:11:26.663Z,0.50
2023-05-21T12:12:27.191Z,0.50
2023-05-21T12:13:26.318Z,0.64
2023-05-21T12:14:26.536Z,0.43
2023-05-21T12:15:26.398Z,0.34
2023-05-21T12:16:26.372Z,0.34
2023-05-21T12:17:26.336Z,0.34
2023-05-21T12:18:26.319Z,0.34
2023-05-21T12:19:26.369Z,0.34
2023-05-21T12:20:26.290Z,0.34
2023-05-21T12:21:26.270Z,0.59
2023-05-21T12:22:26.274Z,0.34
2023-05-21T12:23:26.258Z,0.34
2023-05-21T12:24:26.272Z,0.34
2023-05-21T12:25:26.262Z,0.34
2023-05-21T12:26:26.273Z,0.34
2023-05-21T12:27:26.236Z,0.34
2023-05-21T12:28:27.212Z,0.34
2023-05-21T12:29:26.196Z,0.45
2023-05-21T12:30:26.311Z,1.14
2023-05-21T12:31:26.211Z,0.78
2023-05-21T12:32:26.264Z,0.82
2023-05-21T12:33:26.925Z,0.36
2023-05-21T12:34:26.214Z,0.39
2023-05-21T12:35:26.256Z,0.34
2023-05-21T12:36:26.138Z,0.34
2023-05-21T12:37:26.159Z,0.34
2023-05-21T12:38:26.161Z,0.46
2023-05-21T12:39:26.125Z,1.01
2023-05-21T12:40:26.162Z,0.87
2023-05-21T12:41:26.149Z,0.53
2023-05-21T12:42:26.189Z,0.34
2023-05-21T12:43:26.132Z,0.34
2023-05-21T12:44:26.089Z,0.34
2023-05-21T12:45:26.110Z,0.43
2023-05-21T12:46:26.179Z,1.03
2023-05-21T12:47:26.127Z,0.76
2023-05-21T12:48:26.068Z,0.93
2023-05-21T12:49:26.113Z,0.34
2023-05-21T12:50:26.029Z,0.34
2023-05-21T12:51:26.035Z,0.34
2023-05-21T12:52:26.101Z,0.52
2023-05-21T12:53:26.049Z,0.49
2023-05-21T12:54:26.046Z,0.45
2023-05-21T12:55:26.024Z,0.59
2023-05-21T12:56:26.071Z,0.94
2023-05-21T12:57:26.029Z,1.28
2023-05-21T12:58:26.001Z,1.37
2023-05-21T12:59:26.051Z,1.39
2023-05-21T13:00:25.996Z,0.68
2023-05-21T13:01:26.025Z,0.43
2023-05-21T13:02:26.071Z,0.42
2023-05-21T13:03:25.996Z,0.34
2023-05-21T13:04:26.072Z,0.35
2023-05-21T13:05:25.943Z,1.06
2023-05-21T13:06:25.996Z,1.10
2023-05-21T13:07:25.949Z,2.08
2023-05-21T13:08:25.937Z,5.08
2023-05-21T13:09:25.954Z,15.60
2023-05-21T13:10:25.916Z,5.54
2023-05-21T13:11:25.945Z,1.22
2023-05-21T13:12:25.983Z,1.27
2023-05-21T13:13:25.970Z,1.69
2023-05-21T13:14:25.990Z,1.45
2023-05-21T13:15:26.097Z,0.89
2023-05-21T13:16:26.154Z,0.72
2023-05-21T13:17:26.086Z,0.83
2023-05-21T13:18:26.135Z,0.66
2023-05-21T13:19:26.303Z,0.74
2023-05-21T13:20:26.143Z,0.43
2023-05-21T13:21:26.224Z,0.41
2023-05-21T13:22:26.229Z,0.50
2023-05-21T13:23:26.257Z,0.34
2023-05-21T13:24:26.339Z,0.34
2023-05-21T13:25:26.334Z,0.76
2023-05-21T13:26:26.492Z,2.20
2023-05-21T13:27:26.446Z,3.89
2023-05-21T13:28:26.471Z,4.41
2023-05-21T13:29:26.493Z,5.84
2023-05-21T13:30:26.579Z,2.72
2023-05-21T13:31:26.559Z,3.00
2023-05-21T13:32:27.728Z,0.96
2023-05-21T13:33:26.679Z,0.36
2023-05-21T13:34:26.624Z,0.45
2023-05-21T13:35:26.636Z,0.40
2023-05-21T13:36:26.744Z,0.49
2023-05-21T13:37:26.705Z,0.39
2023-05-21T13:38:26.766Z,0.50
2023-05-21T13:39:26.826Z,0.71
2023-05-21T13:40:26.811Z,0.55
2023-05-21T13:41:26.881Z,0.49
2023-05-21T13:42:26.946Z,0.38
2023-05-21T13:43:26.851Z,0.34
2023-05-21T13:44:26.874Z,0.34
2023-05-21T13:45:26.937Z,0.80
2023-05-21T13:46:27.031Z,0.69
2023-05-21T13:47:27.045Z,0.34
2023-05-21T13:48:26.985Z,0.59
2023-05-21T13:49:27.043Z,0.84
2023-05-21T13:50:27.036Z,1.13
2023-05-21T13:51:38.584Z,1.07
2023-05-21T13:52:28.143Z,1.08
2023-05-21T13:53:27.081Z,1.13
2023-05-21T13:54:27.042Z,0.74
2023-05-21T13:55:27.072Z,0.81
2023-05-21T13:56:27.096Z,0.96
2023-05-21T13:57:26.990Z,0.99
2023-05-21T13:58:27.129Z,0.96
2023-05-21T13:59:27.105Z,1.15
2023-05-21T14:00:27.032Z,1.41
2023-05-21T14:01:27.045Z,1.19
2023-05-21T14:02:27.351Z,1.01
2023-05-21T14:03:26.977Z,1.64
2023-05-21T14:04:26.949Z,6.44
2023-05-21T14:05:27.508Z,5.12
2023-05-21T14:06:27.000Z,17.25
2023-05-21T14:07:27.010Z,33.89
2023-05-21T14:08:27.086Z,8.07
2023-05-21T14:09:27.352Z,20.34
2023-05-21T14:10:27.151Z,48.97
2023-05-21T14:11:27.155Z,41.76
2023-05-21T14:12:27.208Z,47.50
2023-05-21T14:13:27.157Z,20.44
2023-05-21T14:14:27.157Z,17.68
2023-05-21T14:15:27.223Z,1.66
2023-05-21T14:16:27.649Z,0.50
2023-05-21T14:17:27.441Z,0.72
2023-05-21T14:18:27.367Z,1.34
2023-05-21T14:19:27.584Z,1.42
2023-05-21T14:20:27.474Z,2.20
2023-05-21T14:21:27.477Z,2.16
2023-05-21T14:22:27.565Z,1.47
2023-05-21T14:23:27.574Z,2.14
2023-05-21T14:24:27.556Z,4.41
2023-05-21T14:25:27.538Z,2.63
2023-05-21T14:26:27.601Z,10.69
2023-05-21T14:27:27.530Z,31.43
2023-05-21T14:28:27.558Z,39.18
2023-05-21T14:29:27.640Z,12.14
2023-05-21T14:30:27.683Z,15.10
2023-05-21T14:31:27.809Z,5.71
2023-05-21T14:32:27.975Z,3.95
2023-05-21T14:33:27.742Z,5.62
2023-05-21T14:34:28.456Z,2.70
2023-05-21T14:35:27.834Z,4.09
2023-05-21T14:36:27.890Z,2.87
2023-05-21T14:37:27.884Z,2.60
2023-05-21T14:38:28.518Z,3.03
2023-05-21T14:39:27.991Z,1.25
2023-05-21T14:40:28.000Z,0.84
2023-05-21T14:41:28.028Z,1.13
2023-05-21T14:42:28.226Z,1.51
2023-05-21T14:43:28.117Z,1.93
2023-05-21T14:44:28.142Z,0.50
2023-05-21T14:45:28.145Z,0.40
2023-05-21T14:46:28.305Z,0.65
2023-05-21T14:47:28.317Z,0.39
2023-05-21T14:50:41.035Z,0.50
2023-05-21T14:51:40.883Z,0.50
2023-05-21T14:52:40.911Z,0.50
2023-05-21T14:53:40.943Z,0.50
2023-05-21T14:54:40.859Z,0.50
2023-05-21T14:55:41.054Z,0.50
2023-05-21T15:00:16.156Z,0.50
2023-05-21T15:01:16.638Z,0.50
2023-05-21T15:02:16.087Z,0.50
2023-05-21T15:03:16.218Z,0.50
2023-05-21T15:04:16.087Z,0.50
2023-05-21T15:05:15.989Z,0.50
2023-05-21T15:06:16.016Z,0.34
2023-05-21T15:07:16.347Z,0.34
2023-05-21T15:08:16.055Z,0.34
2023-05-21T15:09:16.015Z,0.34
2023-05-21T15:10:17.980Z,0.34
2023-05-21T15:11:15.978Z,0.34
2023-05-21T15:12:16.128Z,0.34
2023-05-21T15:13:16.956Z,0.34
2023-05-21T15:14:16.962Z,0.34
2023-05-21T15:15:15.941Z,0.34
2023-05-21T15:16:17.285Z,0.34
2023-05-21T15:17:15.912Z,0.34
2023-05-21T15:18:15.922Z,0.35
2023-05-21T15:19:16.056Z,0.45
2023-05-21T15:20:15.930Z,0.34
2023-05-21T15:21:15.961Z,0.34
2023-05-21T15:22:15.918Z,0.34
2023-05-21T15:23:17.794Z,0.81
2023-05-21T15:24:15.889Z,0.85
2023-05-21T15:25:15.888Z,0.91
2023-05-21T15:26:15.920Z,0.81
2023-05-21T15:27:15.877Z,1.14
2023-05-21T15:28:15.833Z,1.21
2023-05-21T15:29:15.846Z,1.21
2023-05-21T15:30:15.860Z,0.45
2023-05-21T15:31:16.684Z,0.37
2023-05-21T15:32:16.007Z,0.50
2023-05-21T15:35:01.748Z,0.50
2023-05-21T15:36:01.485Z,0.50
2023-05-21T15:37:01.393Z,0.50
2023-05-21T15:38:01.685Z,0.50
2023-05-21T15:39:02.083Z,0.50
2023-05-21T15:59:57.601Z,0.50
2023-05-21T16:00:57.423Z,0.50
2023-05-21T16:01:57.236Z,0.50
2023-05-21T16:09:18.975Z,0.50
2023-05-21T16:10:18.188Z,0.50
2023-05-21T16:11:18.176Z,0.50
2023-05-21T16:13:37.237Z,0.50
2023-05-21T16:14:37.242Z,0.50
2023-05-21T16:15:37.610Z,0.50
2023-05-21T16:16:37.150Z,0.50
2023-05-21T16:17:37.178Z,0.50
2023-05-21T16:18:37.058Z,0.34
2023-05-21T16:19:37.128Z,2.03
2023-05-21T16:20:37.059Z,1.44
2023-05-21T16:21:37.093Z,1.60
2023-05-21T16:22:37.086Z,1.63
2023-05-21T16:23:37.034Z,2.05
2023-05-21T16:24:37.097Z,2.71
2023-05-21T16:25:37.194Z,2.40
2023-05-21T16:26:37.004Z,0.34
2023-05-21T16:27:37.008Z,0.34
2023-05-21T16:28:37.561Z,0.34
2023-05-21T16:29:39.291Z,0.34
2023-05-21T16:30:37.031Z,0.35
2023-05-21T16:31:37.052Z,0.35
2023-05-21T16:32:36.993Z,0.34
2023-05-21T16:33:36.994Z,0.34
2023-05-21T16:34:36.954Z,0.34
2023-05-21T16:35:37.234Z,0.34
2023-05-21T16:36:37.014Z,0.53
2023-05-21T16:37:36.976Z,0.92
2023-05-21T16:38:36.941Z,2.20
2023-05-21T16:39:36.953Z,1.29
2023-05-21T16:40:36.939Z,1.21
2023-05-21T16:41:36.898Z,1.56
2023-05-21T16:42:36.950Z,1.13
2023-05-21T16:43:36.923Z,0.60
2023-05-21T16:44:36.981Z,0.34
2023-05-21T16:45:37.116Z,0.34
2023-05-21T16:46:36.938Z,0.45
2023-05-21T16:47:36.938Z,0.67
2023-05-21T16:48:38.182Z,1.14
2023-05-21T16:49:36.896Z,0.76
2023-05-21T16:50:36.882Z,0.58
2023-05-21T16:51:36.893Z,0.67
2023-05-21T16:52:36.861Z,0.38
2023-05-21T16:53:36.832Z,0.34